Rodkallen, Sweden

9:10 AM CET on December 08, 2016 (GMT +0100)
Kallax48 | | Change Station

Elev 20 ft 65.51 °N, 22.08 °E | Updated 1 second ago

Fog
Fog
13.6 °F
Feels Like 14 °F
N
0.0
Wind Variable Wind from South
Gusts 0.0 mph

Today
High -- | Low -- °F
--% Chance of Precip.
Yesterday
High -- | Low -- °F
Precip. -- in
Pressure 29.33 in
Visibility -9999.0 miles
Clouds
Windchill 14 °F
Dew Point 6 °F
Humidity 71%
Rainfall 0.00 in
Snow Depth Not available.
9:26 AM 1:17 PM
First Quarter, 61% visible
METAR ESPA 080750Z VRB01KT CAVOK M11/M12 Q0993
Pressure 29.33 in
Visibility -9999.0 miles
Clouds
Windchill 14 °F
Dew Point 6 °F
Humidity 71%
Rainfall 0.00 in
Snow Depth Not available.
9:26 AM 1:17 PM
First Quarter, 61% visible
METAR ESPA 080750Z VRB01KT CAVOK M11/M12 Q0993

10-Day Weather Forecast

×

Almanac

Astronomy

Dec. 08, 2016 Rise Set
Actual Time
Civil Twilight
Nautical Twilight
Astronomical Twilight
Moon
Length of Visible Light
Length of Day
Tomorrow will be .
, % of the Moon is Illuminated

Today's Extremes

Country Highs Country Lows

Community

WunderPhotos

Upload Photos

1,956,259 photos uploaded!

WunderBlog® & News

Nearby

Air Quality

  Air Quality AQ Index Pollutant
Not available.

Snow Depth

Station Depth Elevation

Earthquake Activity

City Distance Mag. Time & Date
Minimum magnitude displayed is 2.5.

Coastal Water Temperatures

Place Temperature

Stations

Nearby Weather Stations

Station Location Temp. Windchill Dew Point Humidity Wind Precip. Elev Updated Type